Time;durP1;ratioP1;P1;durP2;ratioP2;P2;SDS_P1;SDS_P2;PMS_P1;PMS_P2;Temp;Humidity;BMP_temperature;BMP_pressure;BME280_temperature;BME280_humidity;BME280_pressure;Samples;Min_cycle;Max_cycle;Signal;HPM_P1;HPM_P2
2022/09/03 00:00:38;;;;;;;11.20;10.20;;;25.20;1.00;;;;;;5033526;28;20057;-53
2022/09/03 00:03:32;;;;;;;10.73;9.50;;;25.30;1.00;;;;;;5034598;28;20021;-51
2022/09/03 00:06:07;;;;;;;10.52;9.23;;;25.30;1.00;;;;;;5039012;28;20033;-52
2022/09/03 00:08:40;;;;;;;13.90;8.90;;;25.10;1.00;;;;;;5020934;28;20348;-53
2022/09/03 00:11:16;;;;;;;10.30;8.63;;;25.00;1.00;;;;;;5038996;28;20097;-54
2022/09/03 00:13:49;;;;;;;9.05;8.25;;;25.10;1.00;;;;;;5020951;28;20018;-51
2022/09/03 00:16:20;;;;;;;10.27;8.75;;;25.20;1.00;;;;;;5033273;28;20025;-51
2022/09/03 00:18:51;;;;;;;9.73;8.80;;;25.20;1.00;;;;;;5034039;28;20021;-55
2022/09/03 00:21:40;;;;;;;9.13;8.23;;;25.20;1.00;;;;;;5033205;28;20494;-53
2022/09/03 00:24:10;;;;;;;10.35;9.40;;;25.10;1.00;;;;;;5022368;28;20130;-55
2022/09/03 00:26:38;;;;;;;10.50;9.35;;;25.10;1.00;;;;;;5031966;28;20064;-54
2022/09/03 00:29:18;;;;;;;10.98;10.18;;;24.80;1.00;;;;;;5032172;28;20025;-52
2022/09/03 00:31:52;;;;;;;10.93;9.85;;;24.80;1.00;;;;;;5033228;28;20045;-52
2022/09/03 00:34:25;;;;;;;10.63;9.63;;;24.80;1.00;;;;;;5033695;28;20096;-52
2022/09/03 00:36:52;;;;;;;11.30;10.20;;;24.90;1.00;;;;;;5044875;28;20142;-53
2022/09/03 00:39:20;;;;;;;11.48;10.25;;;24.70;1.00;;;;;;5029780;28;20024;-52
2022/09/03 00:42:10;;;;;;;11.30;10.30;;;24.60;1.00;;;;;;5033095;28;20547;-50
2022/09/03 00:45:14;;;;;;;12.77;10.60;;;24.70;1.00;;;;;;5033036;28;20394;-52
2022/09/03 00:47:56;;;;;;;11.68;10.52;;;24.70;1.00;;;;;;5037115;28;20071;-51
2022/09/03 00:50:59;;;;;;;11.82;10.55;;;24.80;1.00;;;;;;5031997;28;20456;-50
2022/09/03 00:54:07;;;;;;;12.50;11.27;;;24.80;1.00;;;;;;5033571;28;20034;-50
2022/09/03 00:56:52;;;;;;;12.38;11.30;;;24.70;1.00;;;;;;5009955;28;20029;-50
2022/09/03 00:59:30;;;;;;;12.25;11.15;;;24.80;1.00;;;;;;5031296;28;20092;-52
2022/09/03 01:02:13;;;;;;;12.82;11.50;;;24.70;1.00;;;;;;5025711;28;20133;-51
2022/09/03 01:05:08;;;;;;;12.32;11.07;;;24.80;1.00;;;;;;5019734;28;20104;-53
2022/09/03 01:07:36;;;;;;;13.38;12.07;;;24.80;1.00;;;;;;5032496;28;20096;-53
2022/09/03 01:10:45;;;;;;;12.80;11.60;;;24.70;1.00;;;;;;5032498;28;20033;-51
2022/09/03 01:13:18;;;;;;;13.35;12.13;;;24.80;1.00;;;;;;5020594;28;20049;-51
2022/09/03 01:16:21;;;;;;;13.07;11.77;;;24.70;1.00;;;;;;5038814;28;20028;-51
2022/09/03 01:18:59;;;;;;;12.85;11.55;;;24.70;1.00;;;;;;5026401;28;20072;-51
2022/09/03 01:21:57;;;;;;;14.63;13.02;;;24.70;1.00;;;;;;5040026;28;20037;-52
2022/09/03 01:24:44;;;;;;;15.27;13.82;;;24.60;1.00;;;;;;5023632;28;20033;-52
2022/09/03 01:27:28;;;;;;;14.32;12.93;;;24.60;1.00;;;;;;5023131;28;20132;-54
2022/09/03 01:30:05;;;;;;;13.82;12.73;;;24.60;1.00;;;;;;5031196;28;20083;-55
2022/09/03 01:32:41;;;;;;;14.68;13.30;;;24.60;1.00;;;;;;5031300;28;20056;-52
2022/09/03 01:35:19;;;;;;;14.75;13.35;;;24.60;1.00;;;;;;5033043;28;20033;-52
2022/09/03 01:37:59;;;;;;;13.75;12.52;;;24.60;1.00;;;;;;5031945;28;20112;-55
2022/09/03 01:40:49;;;;;;;13.43;12.27;;;24.50;1.00;;;;;;5030728;28;20447;-54
2022/09/03 01:43:21;;;;;;;13.43;12.13;;;24.50;1.00;;;;;;5031071;28;20037;-55
2022/09/03 01:46:00;;;;;;;12.02;10.93;;;24.50;1.00;;;;;;5033919;28;20494;-56
2022/09/03 01:48:31;;;;;;;12.98;11.68;;;24.40;1.00;;;;;;5030853;28;20402;-56
2022/09/03 01:51:22;;;;;;;12.57;11.50;;;24.30;1.00;;;;;;5027677;28;20063;-56
2022/09/03 01:54:07;;;;;;;11.75;10.75;;;24.10;1.00;;;;;;5032117;28;20032;-56
2022/09/03 01:56:33;;;;;;;11.75;10.65;;;24.20;1.00;;;;;;5030054;28;20479;-55
2022/09/03 01:59:06;;;;;;;11.68;10.55;;;24.20;1.00;;;;;;5027220;28;20033;-55
2022/09/03 02:01:37;;;;;;;11.20;10.20;;;24.10;1.00;;;;;;5030355;28;20115;-55
2022/09/03 02:04:15;;;;;;;11.13;10.13;;;24.10;1.00;;;;;;5030326;28;20275;-54
2022/09/03 02:06:43;;;;;;;10.70;9.38;;;24.00;1.00;;;;;;5031728;28;20080;-52
2022/09/03 02:09:09;;;;;;;10.95;9.98;;;24.00;1.00;;;;;;5033230;28;20040;-53
2022/09/03 02:11:36;;;;;;;11.73;10.55;;;24.10;1.00;;;;;;5037883;28;20037;-54
2022/09/03 02:14:03;;;;;;;11.35;10.35;;;24.10;1.00;;;;;;5031421;28;20091;-55
2022/09/03 02:16:33;;;;;;;10.85;9.85;;;23.90;1.00;;;;;;5032070;28;20099;-52
2022/09/03 02:19:30;;;;;;;10.48;9.43;;;24.00;1.00;;;;;;5031040;28;20034;-51
2022/09/03 02:21:57;;;;;;;11.52;10.45;;;24.00;1.00;;;;;;5044331;28;20034;-51
2022/09/03 02:24:27;;;;;;;10.70;9.70;;;24.00;1.00;;;;;;5031052;28;20116;-53
2022/09/03 02:26:53;;;;;;;9.85;8.95;;;24.00;1.00;;;;;;5032177;28;20478;-53
2022/09/03 02:29:20;;;;;;;9.23;8.50;;;24.00;1.00;;;;;;5042004;28;20025;-52
2022/09/03 02:31:45;;;;;;;9.57;8.68;;;23.80;1.00;;;;;;5031903;28;20044;-51
2022/09/03 02:34:11;;;;;;;9.60;8.70;;;23.80;1.00;;;;;;5033389;28;20025;-51
2022/09/03 02:36:45;;;;;;;9.48;8.57;;;23.80;1.00;;;;;;5038386;28;20029;-49
2022/09/03 02:39:12;;;;;;;8.13;7.43;;;23.80;1.00;;;;;;5039521;28;20047;-51
2022/09/03 02:41:38;;;;;;;8.38;7.70;;;23.80;1.00;;;;;;5049631;28;20025;-51
2022/09/03 02:44:09;;;;;;;8.55;7.85;;;23.70;1.00;;;;;;5035906;28;20442;-50
2022/09/03 02:46:39;;;;;;;8.32;7.55;;;23.80;1.00;;;;;;5038085;28;20021;-53
2022/09/03 02:49:07;;;;;;;7.97;7.22;;;23.80;1.00;;;;;;5038215;28;20471;-51
2022/09/03 02:51:39;;;;;;;8.00;7.30;;;23.90;1.00;;;;;;5049704;28;20041;-54
2022/09/03 02:54:05;;;;;;;8.32;7.30;;;23.80;1.00;;;;;;5035392;28;20415;-56
2022/09/03 02:56:31;;;;;;;8.23;7.50;;;23.80;1.00;;;;;;5038162;28;20017;-55
2022/09/03 02:58:56;;;;;;;7.47;6.78;;;23.80;1.00;;;;;;5036951;28;20029;-55
2022/09/03 03:01:23;;;;;;;7.63;6.95;;;23.80;1.00;;;;;;5036344;28;20065;-55
2022/09/03 03:03:49;;;;;;;6.57;6.07;;;23.70;1.00;;;;;;5035560;28;20033;-55
2022/09/03 03:06:15;;;;;;;7.45;6.30;;;23.80;1.00;;;;;;5037564;28;20168;-50
2022/09/03 03:08:43;;;;;;;6.35;5.85;;;23.70;1.00;;;;;;5028978;28;20022;-55
2022/09/03 03:11:08;;;;;;;7.45;6.75;;;23.70;1.00;;;;;;5035872;28;20064;-50
2022/09/03 03:13:34;;;;;;;5.70;5.18;;;23.50;1.00;;;;;;5045313;28;20065;-55
2022/09/03 03:16:05;;;;;;;6.35;5.85;;;23.60;1.00;;;;;;5037424;28;20582;-52
2022/09/03 03:18:31;;;;;;;6.00;5.53;;;23.60;1.00;;;;;;5045284;28;20089;-55
2022/09/03 03:20:56;;;;;;;5.60;5.10;;;23.60;1.00;;;;;;5051904;28;20108;-54
2022/09/03 03:23:22;;;;;;;5.95;5.45;;;23.60;1.00;;;;;;5038252;28;20021;-57
2022/09/03 03:25:49;;;;;;;6.80;6.25;;;23.60;1.00;;;;;;5046101;28;20021;-51
2022/09/03 03:28:17;;;;;;;7.00;6.35;;;23.60;1.00;;;;;;5038170;28;20032;-56
2022/09/03 03:30:46;;;;;;;7.18;6.47;;;23.60;1.00;;;;;;5046390;28;20044;-55
2022/09/03 03:33:11;;;;;;;7.30;6.70;;;23.50;1.00;;;;;;5045489;28;20029;-53
2022/09/03 03:35:37;;;;;;;7.30;6.75;;;23.60;1.00;;;;;;5045114;28;20119;-53
2022/09/03 03:38:03;;;;;;;7.90;6.50;;;23.50;1.00;;;;;;5042256;28;20018;-53
2022/09/03 03:40:30;;;;;;;7.22;6.63;;;23.50;1.00;;;;;;5042643;28;20044;-55
2022/09/03 03:42:57;;;;;;;7.40;6.70;;;23.40;1.00;;;;;;5044113;28;20020;-54
2022/09/03 03:45:22;;;;;;;7.70;6.43;;;23.40;1.00;;;;;;5022567;28;20116;-56
2022/09/03 03:47:58;;;;;;;7.10;6.60;;;23.50;1.00;;;;;;5034971;28;20559;-57
2022/09/03 03:50:24;;;;;;;6.80;6.20;;;23.50;1.00;;;;;;5031708;28;20042;-56
2022/09/03 03:52:50;;;;;;;8.98;6.97;;;23.40;1.00;;;;;;5032754;28;20033;-52
2022/09/03 03:55:15;;;;;;;6.93;6.40;;;23.40;1.00;;;;;;5034882;28;20080;-54
2022/09/03 03:57:41;;;;;;;6.13;5.65;;;23.50;1.00;;;;;;5033608;28;20494;-56
2022/09/03 04:00:07;;;;;;;6.93;6.43;;;23.50;1.00;;;;;;5032948;28;20112;-54
2022/09/03 04:02:33;;;;;;;6.40;5.63;;;23.50;1.00;;;;;;5028754;28;20029;-56
2022/09/03 04:04:59;;;;;;;7.82;6.75;;;23.60;1.00;;;;;;5033674;28;20402;-57
2022/09/03 04:07:24;;;;;;;7.70;6.20;;;23.60;1.00;;;;;;5033547;28;20479;-57
2022/09/03 04:09:50;;;;;;;6.70;6.10;;;23.60;1.00;;;;;;5034225;28;20105;-56
2022/09/03 04:12:16;;;;;;;8.25;6.75;;;23.50;1.00;;;;;;5034417;28;20167;-57
2022/09/03 04:14:42;;;;;;;6.65;6.05;;;23.60;1.00;;;;;;5034462;28;20458;-56
2022/09/03 04:17:08;;;;;;;7.80;6.38;;;23.60;1.00;;;;;;5035267;28;20025;-55
2022/09/03 04:19:33;;;;;;;6.93;5.93;;;23.50;1.00;;;;;;5048112;28;20139;-57
2022/09/03 04:22:02;;;;;;;7.78;6.15;;;23.50;1.00;;;;;;5033222;28;20506;-56
2022/09/03 04:24:28;;;;;;;7.47;6.57;;;23.50;1.00;;;;;;5033128;28;20021;-57
2022/09/03 04:26:54;;;;;;;6.55;6.05;;;23.50;1.00;;;;;;5032595;28;20064;-57
2022/09/03 04:29:20;;;;;;;8.77;6.30;;;23.60;1.00;;;;;;5033774;28;20053;-55
2022/09/03 04:34:31;;;;;;;;;;;23.50;1.00;;;;;;5034617;28;20163;-52
2022/09/03 04:36:59;;;;;;;6.63;6.13;;;23.40;1.00;;;;;;5032906;28;20007;-54
2022/09/03 04:39:25;;;;;;;6.93;6.30;;;23.40;1.00;;;;;;5033879;28;20502;-57
2022/09/03 04:41:50;;;;;;;6.63;6.07;;;23.40;1.00;;;;;;5041155;28;20025;-53
2022/09/03 04:44:16;;;;;;;6.80;6.25;;;23.40;1.00;;;;;;5031445;28;20033;-52
2022/09/03 04:46:42;;;;;;;7.03;6.43;;;23.30;1.00;;;;;;5046878;28;20025;-53
2022/09/03 04:49:09;;;;;;;6.57;6.05;;;23.30;1.00;;;;;;5032740;28;20057;-57
2022/09/03 04:51:37;;;;;;;6.82;6.18;;;23.10;1.00;;;;;;5038640;28;20096;-55
2022/09/03 04:54:03;;;;;;;6.43;5.82;;;23.30;1.00;;;;;;5033480;28;20065;-51
2022/09/03 04:56:30;;;;;;;6.75;6.15;;;23.20;1.00;;;;;;5032888;28;20060;-53
2022/09/03 04:58:59;;;;;;;7.07;6.10;;;23.20;1.00;;;;;;5033207;28;20053;-55
2022/09/03 05:01:26;;;;;;;7.10;6.03;;;23.10;1.00;;;;;;5038023;28;20491;-54
2022/09/03 05:03:52;;;;;;;6.03;5.43;;;23.10;1.00;;;;;;5033162;28;20072;-56
2022/09/03 05:06:18;;;;;;;5.28;4.88;;;23.10;1.00;;;;;;5039613;28;20037;-53
2022/09/03 05:08:48;;;;;;;8.32;6.25;;;23.10;1.00;;;;;;5033379;28;20014;-56
2022/09/03 05:11:14;;;;;;;6.68;5.90;;;23.20;1.00;;;;;;5034790;28;20041;-56
2022/09/03 05:13:41;;;;;;;6.30;5.30;;;23.10;1.00;;;;;;5033215;28;20494;-55
2022/09/03 05:16:09;;;;;;;5.93;4.70;;;23.20;1.00;;;;;;5040850;28;20056;-55
2022/09/03 05:18:35;;;;;;;7.45;4.97;;;23.10;1.00;;;;;;5031649;28;20032;-56
2022/09/03 05:21:04;;;;;;;6.75;4.43;;;23.10;1.00;;;;;;5021291;28;20137;-53
2022/09/03 05:23:31;;;;;;;6.10;5.18;;;23.00;1.00;;;;;;5031511;28;20100;-57
2022/09/03 05:26:02;;;;;;;5.00;4.60;;;23.00;1.00;;;;;;5029361;28;20025;-56
2022/09/03 05:28:29;;;;;;;7.15;5.05;;;23.10;1.00;;;;;;5031243;28;20017;-57
2022/09/03 05:31:00;;;;;;;7.53;5.28;;;23.10;1.00;;;;;;5031017;28;20044;-55
2022/09/03 05:33:26;;;;;;;4.88;4.43;;;23.00;1.00;;;;;;5032176;28;20036;-57
2022/09/03 05:35:53;;;;;;;5.03;4.65;;;23.10;1.00;;;;;;5033445;28;20064;-57
2022/09/03 05:38:19;;;;;;;4.90;4.30;;;23.10;1.00;;;;;;5032636;28;20168;-54
2022/09/03 05:40:45;;;;;;;5.75;4.45;;;23.20;1.00;;;;;;5040739;28;20188;-56
2022/09/03 05:43:10;;;;;;;5.05;4.55;;;23.20;1.00;;;;;;5032910;28;20025;-57
2022/09/03 05:45:36;;;;;;;4.82;4.38;;;23.00;1.00;;;;;;5040000;28;20059;-57
2022/09/03 05:48:02;;;;;;;4.15;3.85;;;23.10;1.00;;;;;;5031589;28;20029;-55
2022/09/03 05:50:27;;;;;;;5.88;4.30;;;23.20;1.00;;;;;;5037157;28;20069;-54
2022/09/03 05:52:54;;;;;;;5.13;4.57;;;23.10;1.00;;;;;;5031135;28;20040;-55
2022/09/03 05:55:20;;;;;;;5.82;4.20;;;23.20;1.00;;;;;;5030641;28;20021;-57
2022/09/03 05:57:51;;;;;;;7.95;4.82;;;23.20;1.00;;;;;;5030789;28;20079;-57
2022/09/03 06:07:00;;;;;;;4.63;4.10;;;23.30;1.00;;;;;;5026374;28;20108;-58
2022/09/03 06:09:26;;;;;;;4.53;4.13;;;23.40;1.00;;;;;;5031554;28;20436;-57
2022/09/03 06:11:53;;;;;;;4.22;3.92;;;23.40;1.00;;;;;;5039947;28;20037;-52
2022/09/03 06:14:19;;;;;;;8.10;4.75;;;23.50;1.00;;;;;;5032065;28;20021;-55
2022/09/03 06:16:51;;;;;;;5.38;4.15;;;23.50;1.00;;;;;;5040194;28;20036;-57
2022/09/03 06:19:17;;;;;;;4.90;4.50;;;23.50;1.00;;;;;;5031509;28;20025;-57
2022/09/03 06:21:44;;;;;;;4.95;3.60;;;23.50;1.00;;;;;;5028721;28;20479;-54
2022/09/03 06:24:12;;;;;;;5.10;3.63;;;23.60;1.00;;;;;;5030376;28;20073;-57
2022/09/03 06:26:38;;;;;;;4.47;4.03;;;23.70;1.00;;;;;;5037968;28;20472;-58
2022/09/03 06:29:03;;;;;;;5.88;3.55;;;23.70;1.00;;;;;;5039547;28;20124;-56
2022/09/03 06:31:30;;;;;;;5.32;3.72;;;23.70;1.00;;;;;;5030833;28;20396;-57
2022/09/03 06:33:55;;;;;;;4.30;3.63;;;23.70;1.00;;;;;;5031743;28;20017;-56
2022/09/03 06:36:22;;;;;;;3.95;3.50;;;23.80;1.00;;;;;;5031058;28;20560;-53
2022/09/03 06:38:54;;;;;;;7.43;3.60;;;23.80;1.00;;;;;;5031669;28;20032;-55
2022/09/03 06:41:26;;;;;;;4.82;3.35;;;23.70;1.00;;;;;;5034201;28;20025;-53
2022/09/03 06:43:57;;;;;;;3.97;3.67;;;23.80;1.00;;;;;;5033146;28;20021;-52
2022/09/03 06:46:23;;;;;;;4.80;3.83;;;23.80;1.00;;;;;;5029637;28;20037;-52
2022/09/03 06:48:53;;;;;;;3.20;3.00;;;23.70;1.00;;;;;;5025799;28;20148;-54
2022/09/03 06:51:25;;;;;;;3.40;3.10;;;23.80;1.00;;;;;;5035933;28;20064;-57
2022/09/03 06:54:05;;;;;;;5.18;3.55;;;23.70;1.00;;;;;;5031751;28;20092;-50
2022/09/03 06:56:31;;;;;;;3.75;3.45;;;23.80;1.00;;;;;;5034681;28;20360;-53
2022/09/03 06:58:59;;;;;;;3.72;3.35;;;23.80;1.00;;;;;;5031879;28;20034;-54
2022/09/03 07:01:30;;;;;;;4.25;3.83;;;23.80;1.00;;;;;;5030732;28;20476;-55
2022/09/03 07:03:59;;;;;;;6.43;3.65;;;23.90;1.00;;;;;;5031463;28;20108;-56
2022/09/03 07:06:28;;;;;;;4.30;3.90;;;24.00;1.00;;;;;;5030843;28;20017;-55
2022/09/03 07:08:54;;;;;;;6.05;3.88;;;24.10;1.00;;;;;;5036935;28;20601;-54
2022/09/03 07:11:22;;;;;;;6.07;3.72;;;24.00;1.00;;;;;;5030603;28;20483;-55
2022/09/03 07:13:50;;;;;;;4.28;3.88;;;24.00;1.00;;;;;;5031598;28;20475;-55
2022/09/03 07:16:17;;;;;;;6.85;4.35;;;24.10;1.00;;;;;;5038368;28;20017;-54
2022/09/03 07:18:44;;;;;;;4.32;3.67;;;24.00;1.00;;;;;;5031371;28;20479;-54
2022/09/03 07:21:12;;;;;;;4.68;4.38;;;24.10;1.00;;;;;;5031769;28;20026;-53
2022/09/03 07:23:52;;;;;;;5.32;4.55;;;24.00;1.00;;;;;;5035225;28;20475;-57
2022/09/03 07:26:29;;;;;;;6.22;4.82;;;24.20;1.00;;;;;;5043864;28;20033;-57
2022/09/03 07:28:55;;;;;;;4.95;4.57;;;24.10;1.00;;;;;;5034999;28;20033;-54
2022/09/03 07:31:28;;;;;;;9.00;4.75;;;24.10;1.00;;;;;;5042830;28;20029;-56
2022/09/03 07:33:55;;;;;;;7.10;5.22;;;24.10;1.00;;;;;;5037905;28;20022;-56
2022/09/03 07:36:21;;;;;;;5.30;4.80;;;24.00;1.00;;;;;;5034874;28;20030;-57
2022/09/03 07:38:47;;;;;;;6.35;4.70;;;24.00;1.00;;;;;;5034006;28;20010;-56
2022/09/03 07:41:14;;;;;;;5.18;4.68;;;24.00;1.00;;;;;;5034962;28;20098;-54
2022/09/03 07:43:51;;;;;;;5.65;4.78;;;23.90;1.00;;;;;;5040625;28;20021;-55
2022/09/03 07:46:22;;;;;;;5.53;4.63;;;24.20;1.00;;;;;;5033443;28;20041;-55
2022/09/03 07:48:53;;;;;;;5.15;4.70;;;24.30;1.00;;;;;;5040955;28;20061;-55
2022/09/03 07:51:31;;;;;;;7.63;5.95;;;24.50;1.00;;;;;;5034415;28;20049;-55
2022/09/03 07:53:59;;;;;;;5.57;5.18;;;24.60;1.00;;;;;;5041570;28;20193;-55
2022/09/03 07:56:26;;;;;;;6.25;5.65;;;24.60;1.00;;;;;;5034491;28;20025;-56
2022/09/03 07:58:54;;;;;;;6.05;5.57;;;24.60;1.00;;;;;;5032705;28;20112;-58
2022/09/03 08:01:21;;;;;;;6.50;5.47;;;24.60;1.00;;;;;;5033128;28;20372;-55
2022/09/03 08:03:49;;;;;;;5.90;5.40;;;24.70;1.00;;;;;;5042469;28;20494;-55
2022/09/03 08:06:17;;;;;;;6.82;6.05;;;24.80;1.00;;;;;;5034611;28;20036;-53
2022/09/03 08:08:58;;;;;;;7.43;6.63;;;24.80;1.00;;;;;;5038802;28;20018;-52
2022/09/03 08:11:25;;;;;;;6.68;6.07;;;24.90;1.00;;;;;;5034445;28;20033;-55
2022/09/03 08:14:01;;;;;;;7.38;6.50;;;24.90;1.00;;;;;;5033115;28;20029;-55
2022/09/03 08:16:29;;;;;;;6.57;6.03;;;24.90;1.00;;;;;;5034358;28;20029;-55
2022/09/03 08:18:55;;;;;;;6.45;5.95;;;24.80;1.00;;;;;;5041533;28;20418;-55
2022/09/03 08:21:22;;;;;;;6.45;5.85;;;24.80;1.00;;;;;;5033984;28;20025;-56
2022/09/03 08:23:52;;;;;;;6.30;5.80;;;24.80;1.00;;;;;;5034164;28;20105;-55
2022/09/03 08:26:19;;;;;;;7.05;6.30;;;24.70;1.00;;;;;;5019088;28;20029;-56
2022/09/03 08:28:45;;;;;;;7.65;6.38;;;24.70;1.00;;;;;;5040392;28;20028;-54
2022/09/03 08:31:15;;;;;;;7.22;6.53;;;24.50;1.00;;;;;;5033755;28;20029;-54
2022/09/03 08:33:43;;;;;;;7.07;6.40;;;24.50;1.00;;;;;;5032575;28;20579;-56
2022/09/03 08:36:21;;;;;;;7.32;6.70;;;24.50;1.00;;;;;;5040114;28;20025;-56
2022/09/03 08:38:48;;;;;;;6.05;5.55;;;24.40;1.00;;;;;;5039333;28;20027;-53
2022/09/03 08:41:22;;;;;;;7.07;5.82;;;24.50;1.00;;;;;;5029651;28;20451;-56
2022/09/03 08:43:51;;;;;;;;;;;24.60;1.00;;;;;;5033937;28;20483;-56
2022/09/03 08:46:17;;;;;;;8.02;5.93;;;24.60;1.00;;;;;;5032132;28;19917;-56
2022/09/03 08:48:42;;;;;;;6.90;6.30;;;24.70;1.00;;;;;;5033393;28;20132;-55
2022/09/03 08:51:10;;;;;;;8.30;6.40;;;24.70;1.00;;;;;;5030813;28;20371;-56
2022/09/03 08:53:46;;;;;;;7.78;7.05;;;24.80;1.00;;;;;;5022892;28;20036;-57
2022/09/03 08:56:24;;;;;;;6.70;5.97;;;24.80;1.00;;;;;;5027755;28;20102;-56
2022/09/03 08:58:49;;;;;;;5.97;5.50;;;24.70;1.00;;;;;;5028712;28;20044;-56
2022/09/03 09:01:15;;;;;;;9.43;6.40;;;24.80;1.00;;;;;;5031288;28;20029;-55
2022/09/03 09:04:08;;;;;;;6.18;5.40;;;24.90;1.00;;;;;;5032429;28;20479;-55
2022/09/03 09:06:51;;;;;;;6.28;5.65;;;25.00;1.00;;;;;;5031671;28;20049;-57
2022/09/03 09:09:26;;;;;;;7.53;6.07;;;25.10;1.00;;;;;;5032421;28;20072;-56
2022/09/03 09:12:00;;;;;;;6.60;5.07;;;25.10;1.00;;;;;;5036412;28;20170;-54
2022/09/03 09:14:38;;;;;;;;;;;25.20;1.00;;;;;;5035198;28;20502;-56
2022/09/03 09:17:15;;;;;;;8.60;5.50;;;25.20;1.00;;;;;;5032192;28;19909;-56
2022/09/03 09:20:17;;;;;;;8.30;6.20;;;25.30;1.00;;;;;;5032529;28;20022;-57
2022/09/03 09:23:13;;;;;;;6.65;6.00;;;25.40;1.00;;;;;;5040042;28;20091;-56
2022/09/03 09:25:50;;;;;;;6.20;5.70;;;25.50;1.00;;;;;;5028422;28;20037;-56
2022/09/03 09:28:20;;;;;;;7.38;6.68;;;25.70;1.00;;;;;;5041143;28;20109;-53
2022/09/03 09:30:48;;;;;;;7.07;6.35;;;26.00;1.00;;;;;;5031772;28;20132;-58
2022/09/03 09:33:15;;;;;;;6.75;5.68;;;26.20;1.00;;;;;;5030561;28;20017;-54
2022/09/03 09:35:42;;;;;;;7.57;6.43;;;26.40;1.00;;;;;;5032416;28;20030;-57
2022/09/03 09:38:09;;;;;;;8.23;7.00;;;26.50;1.00;;;;;;5042873;28;20057;-57
2022/09/03 09:40:40;;;;;;;5.95;5.35;;;26.70;1.00;;;;;;5032390;28;20032;-57
2022/09/03 09:43:16;;;;;;;5.75;5.35;;;26.60;1.00;;;;;;5040744;28;20087;-56
2022/09/03 09:45:47;;;;;;;6.97;4.60;;;26.40;1.00;;;;;;5032193;28;20487;-56
2022/09/03 09:48:27;;;;;;;5.18;4.65;;;26.20;1.00;;;;;;5031731;28;20128;-56
2022/09/03 09:51:17;;;;;;;6.38;5.72;;;26.20;1.00;;;;;;5031929;28;20499;-55
2022/09/03 09:53:43;;;;;;;7.00;4.80;;;26.20;1.00;;;;;;5030201;28;20026;-57
2022/09/03 09:56:23;;;;;;;6.50;5.80;;;26.30;1.00;;;;;;5030902;28;20140;-56
2022/09/03 09:58:51;;;;;;;6.25;5.65;;;26.40;1.00;;;;;;5031570;28;20045;-56
2022/09/03 10:01:25;;;;;;;6.15;5.22;;;26.50;1.00;;;;;;5035958;28;20029;-55
2022/09/03 10:07:31;;;;;;;5.55;4.25;;;26.80;1.00;;;;;;5018190;28;20482;-56
2022/09/03 10:10:01;;;;;;;5.72;4.63;;;26.90;1.00;;;;;;5030244;28;20041;-57
2022/09/03 10:12:48;;;;;;;5.18;4.75;;;27.00;1.00;;;;;;5031660;28;20025;-57
2022/09/03 10:15:26;;;;;;;4.75;4.30;;;27.10;1.00;;;;;;5032019;28;20068;-54
2022/09/03 10:18:00;;;;;;;5.50;3.83;;;27.30;1.00;;;;;;5032220;28;20111;-53
2022/09/03 10:21:03;;;;;;;7.20;4.82;;;27.40;1.00;;;;;;5030527;28;20053;-56
2022/09/03 10:23:38;;;;;;;6.68;5.57;;;27.40;1.00;;;;;;5022632;28;20021;-57
2022/09/03 10:26:13;;;;;;;5.47;4.88;;;27.40;1.00;;;;;;5032126;28;20034;-54
2022/09/03 10:28:41;;;;;;;4.15;3.75;;;27.50;1.00;;;;;;5031662;28;20037;-53
2022/09/03 10:31:16;;;;;;;6.45;4.20;;;27.70;1.00;;;;;;5031615;28;20041;-53
2022/09/03 10:33:56;;;;;;;6.15;3.40;;;27.70;1.00;;;;;;5028982;28;20076;-57
2022/09/03 10:36:33;;;;;;;5.57;5.03;;;27.80;1.00;;;;;;5044371;28;20039;-56
2022/09/03 10:39:20;;;;;;;5.32;4.82;;;27.70;1.00;;;;;;5034732;28;20030;-55
2022/09/03 10:41:54;;;;;;;3.85;3.50;;;27.60;1.00;;;;;;5030393;28;20062;-57
2022/09/03 10:44:34;;;;;;;5.65;4.07;;;27.70;1.00;;;;;;5034663;28;20079;-56
2022/09/03 10:47:06;;;;;;;4.90;4.40;;;27.80;1.00;;;;;;5031726;28;20061;-56
2022/09/03 10:50:01;;;;;;;4.25;3.85;;;27.90;1.00;;;;;;5026615;28;20056;-53
2022/09/03 10:52:34;;;;;;;5.13;4.57;;;27.90;1.00;;;;;;5033585;28;20041;-55
2022/09/03 10:55:02;;;;;;;4.60;4.30;;;27.90;1.00;;;;;;5034349;28;20021;-53
2022/09/03 10:57:47;;;;;;;4.38;4.07;;;28.00;1.00;;;;;;5034739;28;20475;-54
2022/09/03 11:00:17;;;;;;;5.88;4.28;;;28.00;1.00;;;;;;5034077;28;20057;-57
2022/09/03 11:02:57;;;;;;;6.05;5.53;;;28.20;1.00;;;;;;5033141;28;20018;-55
2022/09/03 11:05:30;;;;;;;5.22;4.75;;;28.10;1.00;;;;;;5034971;28;20036;-52
2022/09/03 11:08:13;;;;;;;5.25;4.65;;;28.10;1.00;;;;;;5037754;28;20024;-56
2022/09/03 11:10:48;;;;;;;4.95;4.55;;;28.00;1.00;;;;;;5038367;28;20041;-57
2022/09/03 11:13:27;;;;;;;5.00;4.60;;;28.10;1.00;;;;;;5041323;28;20056;-57
2022/09/03 11:16:12;;;;;;;5.72;4.18;;;28.10;1.00;;;;;;5037229;28;20047;-57
2022/09/03 11:18:59;;;;;;;6.72;3.70;;;28.20;1.00;;;;;;5042557;28;20035;-57
2022/09/03 11:21:29;;;;;;;4.97;4.13;;;28.50;1.00;;;;;;5022869;28;20018;-56
2022/09/03 11:24:08;;;;;;;4.75;3.95;;;28.80;1.00;;;;;;5034215;28;20075;-56
2022/09/03 11:26:47;;;;;;;4.85;3.63;;;28.60;1.00;;;;;;5023265;28;20371;-57
2022/09/03 11:29:22;;;;;;;4.15;3.85;;;28.60;1.00;;;;;;5034253;28;20029;-58
2022/09/03 11:31:57;;;;;;;3.95;3.55;;;28.50;1.00;;;;;;5035009;28;20029;-57
2022/09/03 11:34:24;;;;;;;4.60;3.63;;;28.70;1.00;;;;;;5034225;28;20029;-56
2022/09/03 11:36:51;;;;;;;3.50;3.10;;;28.70;1.00;;;;;;5034898;28;20025;-57
2022/09/03 11:39:35;;;;;;;3.80;3.08;;;28.90;1.00;;;;;;5046978;28;20036;-55
2022/09/03 11:42:05;;;;;;;;;;;29.00;1.00;;;;;;5035317;28;20096;-56
2022/09/03 11:44:42;;;;;;;3.65;2.95;;;28.90;1.00;;;;;;5046127;28;19912;-57
2022/09/03 11:47:23;;;;;;;4.90;4.47;;;29.20;1.00;;;;;;5033661;28;20033;-58
2022/09/03 11:50:06;;;;;;;4.20;3.80;;;29.30;1.00;;;;;;5033485;28;20100;-58
2022/09/03 11:52:39;;;;;;;3.70;3.40;;;29.40;1.00;;;;;;5034562;28;20183;-58
2022/09/03 11:55:06;;;;;;;7.93;4.82;;;29.50;1.00;;;;;;5034494;28;20033;-56
2022/09/03 11:57:40;;;;;;;4.28;3.88;;;29.10;1.00;;;;;;5034270;28;20483;-57
2022/09/03 12:00:11;;;;;;;4.72;3.67;;;28.90;1.00;;;;;;5034342;28;20033;-58
2022/09/03 12:02:51;;;;;;;4.63;3.08;;;28.80;1.00;;;;;;5034348;28;20033;-57
2022/09/03 12:05:28;;;;;;;4.55;3.63;;;29.00;1.00;;;;;;5033098;28;20033;-57
2022/09/03 12:08:10;;;;;;;4.10;3.80;;;28.80;1.00;;;;;;5032669;28;20100;-54
2022/09/03 12:11:07;;;;;;;5.38;4.18;;;28.70;1.00;;;;;;5034067;28;20437;-57
2022/09/03 12:13:53;;;;;;;5.15;3.80;;;28.50;1.00;;;;;;5034049;28;20071;-57
2022/09/03 12:16:39;;;;;;;3.80;3.28;;;28.50;1.00;;;;;;5030025;28;20056;-56
2022/09/03 12:19:41;;;;;;;5.05;2.70;;;28.50;1.00;;;;;;5026532;28;20026;-55
2022/09/03 12:22:12;;;;;;;4.95;4.45;;;28.90;1.00;;;;;;5023096;28;20033;-57
2022/09/03 12:24:38;;;;;;;5.47;3.97;;;29.00;1.00;;;;;;5027202;28;20438;-55
2022/09/03 12:27:04;;;;;;;4.82;3.95;;;28.80;1.00;;;;;;5030652;28;20114;-57
2022/09/03 12:29:31;;;;;;;3.75;3.45;;;28.80;1.00;;;;;;5043008;28;20014;-57
2022/09/03 12:32:10;;;;;;;3.35;3.15;;;29.10;1.00;;;;;;5033781;28;20061;-57
2022/09/03 12:34:36;;;;;;;5.47;3.78;;;31.50;1.00;;;;;;5033103;28;20022;-54
2022/09/03 12:37:01;;;;;;;4.32;3.35;;;32.60;1.00;;;;;;5033156;28;20044;-56
2022/09/03 12:39:28;;;;;;;3.97;3.60;;;33.30;1.00;;;;;;5039410;28;20022;-56
2022/09/03 12:42:00;;;;;;;5.70;3.65;;;33.40;1.00;;;;;;5032468;28;20064;-58
2022/09/03 12:44:30;;;;;;;4.18;2.92;;;34.40;1.00;;;;;;5032794;28;20028;-57
2022/09/03 12:47:12;;;;;;;7.47;4.25;;;34.30;1.00;;;;;;5032178;28;20505;-57
2022/09/03 12:49:43;;;;;;;3.50;3.30;;;33.30;1.00;;;;;;5032878;28;20021;-57
2022/09/03 12:52:14;;;;;;;6.40;4.07;;;32.30;1.00;;;;;;5033220;28;20126;-56
2022/09/03 12:54:48;;;;;;;3.85;3.55;;;34.00;1.00;;;;;;5040596;28;20021;-57
2022/09/03 12:57:19;;;;;;;4.35;3.95;;;33.10;1.00;;;;;;5022881;28;20061;-56
2022/09/03 12:59:48;;;;;;;4.15;3.75;;;33.00;1.00;;;;;;5032589;28;20017;-57
2022/09/03 13:02:24;;;;;;;3.75;3.45;;;34.70;1.00;;;;;;5039443;28;20060;-57
2022/09/03 13:04:51;;;;;;;4.93;4.13;;;34.70;1.00;;;;;;5031049;28;20026;-55
2022/09/03 13:07:26;;;;;;;4.82;4.00;;;35.30;1.00;;;;;;5044017;28;20132;-57
2022/09/03 13:10:00;;;;;;;4.53;4.22;;;34.30;1.00;;;;;;5032214;28;20067;-58
2022/09/03 13:12:32;;;;;;;5.25;4.40;;;32.90;1.00;;;;;;5043771;28;20067;-58
2022/09/03 13:15:05;;;;;;;4.20;3.90;;;31.70;1.00;;;;;;5039850;28;20025;-55
2022/09/03 13:17:54;;;;;;;6.33;4.97;;;31.30;1.00;;;;;;5044279;28;20033;-58
2022/09/03 13:20:50;;;;;;;4.45;4.13;;;30.70;1.00;;;;;;5032178;28;20256;-57
2022/09/03 13:23:34;;;;;;;4.82;4.32;;;30.80;1.00;;;;;;5024833;28;20410;-57
2022/09/03 13:26:09;;;;;;;3.83;3.53;;;31.10;1.00;;;;;;5033581;28;20021;-58
2022/09/03 13:28:46;;;;;;;5.00;3.85;;;34.90;1.00;;;;;;5031478;28;20427;-57
2022/09/03 13:31:31;;;;;;;4.75;4.35;;;37.70;1.00;;;;;;5031367;28;20041;-58
2022/09/03 13:34:08;;;;;;;3.90;3.60;;;39.70;1.00;;;;;;5039583;28;20025;-58
2022/09/03 13:36:43;;;;;;;4.20;3.85;;;40.80;1.00;;;;;;5040293;28;20044;-56